首页
METAR-TAF:

METAR-TAF

机场 :

长春龙嘉国际机场

长春, 中华人民共和国

纬度: 43-54N, 经度: 125-13E, 海拔: 238米

当前天气观测

该预报发布于20分钟前的05:00 UTC
风速8节,风向南转南东,在东南南转西南之间变化
温度 5°C
湿度 52%
气压 1022 hPa
能见度10公里或以上
1500米以下无云,无积雨云

METAR: ZYCC 140500Z 15004MPS 130V200 CAVOK 05/M04 Q1022 NOSIG

时间: 13:20 (05:20 UTC)

预报

该预报发布于10小时和16分钟前的19:04 UTC
预报有效从14日的 00点(UTC)到 14日的 24点(UTC)
风速8节,风向南转南东
能見度: 6000

TAF: ZYCC 131904Z 1400/1424 15004MPS 6000 NSC TX06/1406Z TN01/1421Z

超过4000个机场的气象观测和天气预报(METAR&TAF报告)。

可查询的气象台以黄色和红色小点在地图上表示。

将鼠标移到小点上方,可查看气象台名称。

然后点击查看天气观测和预报。

如需切换地图:点击带黑十字的绿色按钮放大地图;点击带横线的绿色按钮缩小地图;或者点击绿色箭头查看邻近地区的地图。


METAR-TAF: